createdAt,value
2018-07-07T00:00:28.864Z,91.20
2018-07-07T00:01:32.965Z,91.30
2018-07-07T00:02:37.768Z,91.30
2018-07-07T00:03:41.983Z,91.20
2018-07-07T00:04:46.053Z,91.20
2018-07-07T00:05:50.190Z,91.20
2018-07-07T00:06:54.541Z,91.50
2018-07-07T00:07:58.609Z,91.20
2018-07-07T00:09:02.697Z,91.20
2018-07-07T00:10:07.060Z,91.20
2018-07-07T00:11:11.226Z,91.20
2018-07-07T00:12:15.288Z,91.30
2018-07-07T00:13:19.339Z,91.20
2018-07-07T00:14:23.485Z,91.20
2018-07-07T00:15:27.653Z,91.20
2018-07-07T00:16:31.794Z,91.20
2018-07-07T00:17:35.923Z,91.10
2018-07-07T00:18:40.030Z,91.20
2018-07-07T00:19:44.303Z,91.20
2018-07-07T00:20:48.414Z,91.10
2018-07-07T00:21:52.581Z,91.10
2018-07-07T00:22:56.712Z,91.10
2018-07-07T00:24:00.972Z,90.70
2018-07-07T00:25:05.030Z,91.00
2018-07-07T00:26:09.672Z,90.90
2018-07-07T00:27:14.084Z,90.90
2018-07-07T00:29:21.846Z,90.90
2018-07-07T00:30:25.984Z,90.90
2018-07-07T00:31:30.268Z,90.70
2018-07-07T00:32:34.361Z,90.80
2018-07-07T00:33:38.481Z,90.90
2018-07-07T00:34:42.611Z,90.80
2018-07-07T00:35:50.550Z,90.70
2018-07-07T00:36:55.586Z,90.90
2018-07-07T00:37:59.777Z,90.90
2018-07-07T00:39:03.956Z,90.90
2018-07-07T00:40:08.934Z,91.00
2018-07-07T00:41:13.107Z,91.40
2018-07-07T00:42:17.167Z,91.10
2018-07-07T00:43:21.205Z,91.10
2018-07-07T00:44:25.347Z,91.10
2018-07-07T00:45:29.519Z,91.10
2018-07-07T00:46:33.599Z,91.20
2018-07-07T00:47:37.769Z,91.10
2018-07-07T00:48:41.902Z,91.10
2018-07-07T00:49:46.099Z,91.20
2018-07-07T00:50:50.267Z,91.20
2018-07-07T00:51:54.974Z,91.10
2018-07-07T00:52:59.170Z,91.10
2018-07-07T00:54:03.316Z,91.20
2018-07-07T00:55:07.466Z,91.10
2018-07-07T00:56:11.554Z,91.10
2018-07-07T00:57:15.939Z,91.00
2018-07-07T00:58:20.102Z,91.10
2018-07-07T00:59:24.423Z,91.00
2018-07-07T01:01:38.015Z,91.00
2018-07-07T01:02:42.063Z,90.90
2018-07-07T01:03:46.143Z,91.00
2018-07-07T01:04:52.648Z,91.10
2018-07-07T01:05:56.752Z,91.10
2018-07-07T01:07:00.877Z,91.10
2018-07-07T01:08:05.122Z,91.10
2018-07-07T01:09:09.277Z,91.10
2018-07-07T01:10:13.404Z,91.10
2018-07-07T01:11:17.492Z,91.20
2018-07-07T01:12:21.619Z,91.20
2018-07-07T01:14:29.516Z,91.20
2018-07-07T01:15:33.648Z,91.20
2018-07-07T01:16:37.805Z,91.20
2018-07-07T01:17:41.917Z,91.20
2018-07-07T01:18:46.150Z,91.50
2018-07-07T01:19:50.284Z,91.20
2018-07-07T01:20:54.425Z,91.20
2018-07-07T01:21:58.536Z,91.10
2018-07-07T01:23:03.549Z,91.20
2018-07-07T01:24:07.715Z,91.20
2018-07-07T01:25:11.804Z,91.20
2018-07-07T01:26:15.873Z,90.90
2018-07-07T01:27:19.972Z,91.30
2018-07-07T01:28:24.138Z,91.20
2018-07-07T01:29:28.321Z,91.20
2018-07-07T01:30:32.516Z,91.30
2018-07-07T01:31:36.641Z,91.30
2018-07-07T01:32:40.801Z,91.40
2018-07-07T01:33:44.940Z,91.40
2018-07-07T01:34:49.063Z,91.40
2018-07-07T01:36:56.868Z,91.40
2018-07-07T01:38:01.012Z,91.40
2018-07-07T01:39:05.795Z,91.40
2018-07-07T01:40:09.975Z,91.50
2018-07-07T01:41:14.135Z,91.50
2018-07-07T01:42:18.244Z,91.50
2018-07-07T01:43:22.609Z,91.50
2018-07-07T01:44:32.743Z,91.50
2018-07-07T01:45:42.941Z,91.50
2018-07-07T01:46:47.072Z,91.50
2018-07-07T01:47:51.285Z,91.50
2018-07-07T01:48:55.444Z,91.50
2018-07-07T01:49:59.562Z,91.50
2018-07-07T01:51:03.660Z,91.50
2018-07-07T01:52:07.767Z,91.50
2018-07-07T01:53:11.881Z,91.50
2018-07-07T01:54:15.972Z,91.80
2018-07-07T01:55:20.055Z,91.50
2018-07-07T01:56:24.208Z,91.90
2018-07-07T01:57:28.551Z,91.40
2018-07-07T01:58:32.681Z,91.50
2018-07-07T01:59:36.792Z,91.40
2018-07-07T02:00:41.140Z,91.50
2018-07-07T02:01:45.183Z,91.50
2018-07-07T02:02:49.345Z,91.40
2018-07-07T02:03:53.391Z,91.50
2018-07-07T02:04:57.567Z,91.40
2018-07-07T02:06:01.658Z,91.50
2018-07-07T02:07:06.097Z,91.50
2018-07-07T02:08:10.133Z,91.60
2018-07-07T02:09:14.287Z,91.60
2018-07-07T02:10:18.414Z,91.60
2018-07-07T02:11:22.568Z,92.00
2018-07-07T02:12:26.708Z,91.60
2018-07-07T02:13:30.801Z,91.60
2018-07-07T02:14:34.935Z,91.60
2018-07-07T02:16:44.195Z,91.50
2018-07-07T02:17:48.326Z,91.80
2018-07-07T02:18:52.463Z,91.50
2018-07-07T02:19:56.674Z,91.50
2018-07-07T02:21:00.799Z,91.50
2018-07-07T02:22:05.020Z,91.50
2018-07-07T02:23:09.109Z,91.50
2018-07-07T02:24:13.264Z,91.40
2018-07-07T02:25:17.383Z,91.50
2018-07-07T02:26:21.533Z,91.50
2018-07-07T02:27:25.739Z,91.50
2018-07-07T02:28:29.888Z,91.50
2018-07-07T02:29:34.079Z,91.50
2018-07-07T02:30:38.336Z,91.40
2018-07-07T02:31:42.543Z,91.50
2018-07-07T02:32:46.692Z,91.40
2018-07-07T02:33:50.803Z,91.80
2018-07-07T02:34:54.852Z,91.50
2018-07-07T02:35:58.966Z,91.50
2018-07-07T02:37:03.096Z,91.60
2018-07-07T02:38:07.232Z,91.60
2018-07-07T02:39:11.360Z,91.60
2018-07-07T02:40:15.450Z,92.00
2018-07-07T02:41:19.572Z,91.70
2018-07-07T02:42:23.706Z,91.70
2018-07-07T02:43:27.858Z,91.70
2018-07-07T02:44:31.957Z,91.60
2018-07-07T02:45:36.085Z,91.70
2018-07-07T02:46:40.202Z,91.70
2018-07-07T02:47:44.323Z,91.70
2018-07-07T02:48:48.363Z,91.70
2018-07-07T02:49:52.496Z,91.70
2018-07-07T02:50:56.603Z,91.70
2018-07-07T02:52:00.894Z,91.70
2018-07-07T02:53:05.102Z,91.60
2018-07-07T02:55:12.866Z,91.70
2018-07-07T02:56:16.958Z,91.70
2018-07-07T02:57:21.100Z,92.00
2018-07-07T02:58:25.254Z,91.70
2018-07-07T02:59:29.331Z,91.60
2018-07-07T03:00:33.457Z,91.60
2018-07-07T03:01:37.772Z,91.70
2018-07-07T03:02:41.920Z,91.70
2018-07-07T03:03:45.977Z,91.80
2018-07-07T03:04:50.097Z,91.70
2018-07-07T03:05:54.515Z,91.80
2018-07-07T03:06:58.632Z,91.70
2018-07-07T03:08:02.729Z,91.70
2018-07-07T03:09:06.795Z,91.80
2018-07-07T03:10:10.939Z,91.80
2018-07-07T03:11:15.034Z,91.90
2018-07-07T03:12:19.171Z,91.80
2018-07-07T03:13:23.285Z,92.20
2018-07-07T03:14:27.455Z,91.90
2018-07-07T03:15:31.553Z,91.90
2018-07-07T03:17:39.646Z,91.90
2018-07-07T03:18:43.996Z,91.90
2018-07-07T03:19:48.108Z,91.90
2018-07-07T03:20:52.284Z,91.80
2018-07-07T03:21:56.477Z,91.90
2018-07-07T03:23:00.625Z,91.90
2018-07-07T03:24:04.716Z,92.20
2018-07-07T03:25:09.167Z,91.80
2018-07-07T03:26:13.296Z,91.80
2018-07-07T03:27:17.456Z,91.80
2018-07-07T03:28:21.567Z,91.80
2018-07-07T03:29:25.682Z,91.80
2018-07-07T03:30:29.865Z,91.80
2018-07-07T03:31:34.036Z,91.80
2018-07-07T03:34:46.377Z,91.80
2018-07-07T03:35:50.445Z,91.90
2018-07-07T03:36:54.603Z,91.80
2018-07-07T03:37:58.724Z,91.80
2018-07-07T03:39:02.851Z,91.80
2018-07-07T03:40:06.947Z,91.80
2018-07-07T03:41:11.113Z,91.70
2018-07-07T03:42:15.431Z,92.10
2018-07-07T03:43:19.313Z,91.80
2018-07-07T03:44:23.449Z,91.90
2018-07-07T03:45:27.512Z,91.80
2018-07-07T03:46:31.661Z,91.80
2018-07-07T03:47:35.821Z,91.70
2018-07-07T03:48:40.027Z,91.70
2018-07-07T03:49:44.234Z,91.80
2018-07-07T03:50:48.373Z,91.90
2018-07-07T03:51:52.443Z,91.90
2018-07-07T03:52:56.599Z,91.90
2018-07-07T03:54:00.701Z,91.90
2018-07-07T03:55:04.854Z,91.80
2018-07-07T03:56:08.957Z,91.90
2018-07-07T03:57:13.066Z,91.90
2018-07-07T03:58:17.223Z,91.90
2018-07-07T03:59:21.408Z,91.90
2018-07-07T04:00:26.577Z,91.80
2018-07-07T04:01:30.645Z,91.90
2018-07-07T04:02:34.957Z,92.30
2018-07-07T04:03:39.143Z,91.90
2018-07-07T04:04:43.269Z,91.90
2018-07-07T04:05:47.370Z,91.90
2018-07-07T04:06:51.478Z,92.00
2018-07-07T04:07:55.625Z,92.00
2018-07-07T04:08:59.740Z,92.00
2018-07-07T04:10:03.917Z,92.30
2018-07-07T04:11:08.251Z,92.00
2018-07-07T04:12:12.399Z,91.90
2018-07-07T04:13:16.518Z,92.00
2018-07-07T04:14:20.659Z,92.00
2018-07-07T04:15:24.816Z,91.90
2018-07-07T04:16:28.964Z,91.90
2018-07-07T04:18:36.998Z,92.00
2018-07-07T04:19:41.142Z,92.00
2018-07-07T04:20:45.315Z,92.00
2018-07-07T04:21:49.432Z,92.00
2018-07-07T04:22:53.766Z,92.00
2018-07-07T04:23:57.844Z,91.90
2018-07-07T04:25:02.000Z,91.90
2018-07-07T04:26:06.085Z,92.00
2018-07-07T04:27:10.271Z,92.00
2018-07-07T04:28:14.466Z,92.10
2018-07-07T04:29:18.576Z,92.00
2018-07-07T04:30:22.767Z,92.00
2018-07-07T04:31:26.913Z,92.10
2018-07-07T04:32:31.267Z,92.00
2018-07-07T04:33:35.408Z,92.10
2018-07-07T04:34:39.644Z,92.00
2018-07-07T04:35:43.676Z,92.00
2018-07-07T04:36:47.796Z,92.10
2018-07-07T04:37:52.079Z,92.10
2018-07-07T04:38:56.209Z,92.10
2018-07-07T04:40:00.328Z,92.00
2018-07-07T04:41:04.371Z,92.00
2018-07-07T04:42:08.551Z,92.00
2018-07-07T04:43:12.728Z,92.00
2018-07-07T04:44:16.927Z,92.00
2018-07-07T04:45:21.105Z,92.00
2018-07-07T04:46:25.257Z,92.10
2018-07-07T04:47:29.294Z,92.10
2018-07-07T04:48:33.368Z,92.20
2018-07-07T04:49:37.548Z,92.20
2018-07-07T04:50:41.859Z,92.20
2018-07-07T04:51:45.942Z,92.20
2018-07-07T04:52:50.107Z,92.20
2018-07-07T04:53:54.303Z,92.20
2018-07-07T04:54:58.389Z,92.20
2018-07-07T04:56:02.533Z,92.00
2018-07-07T04:57:06.645Z,92.20
2018-07-07T04:58:10.747Z,92.20
2018-07-07T04:59:14.888Z,92.30
2018-07-07T05:00:18.939Z,92.30
2018-07-07T05:01:23.139Z,92.20
2018-07-07T05:02:27.262Z,92.30
2018-07-07T05:04:35.094Z,92.60
2018-07-07T05:05:39.207Z,92.30
2018-07-07T05:06:43.399Z,92.30
2018-07-07T05:07:47.737Z,92.30
2018-07-07T05:08:51.785Z,92.30
2018-07-07T05:09:55.946Z,92.30
2018-07-07T05:11:00.079Z,92.30
2018-07-07T05:12:04.606Z,92.30
2018-07-07T05:13:08.779Z,92.30
2018-07-07T05:14:12.917Z,92.30
2018-07-07T05:15:16.991Z,92.30
2018-07-07T05:16:21.095Z,92.30
2018-07-07T05:17:25.244Z,92.20
2018-07-07T05:18:29.345Z,92.10
2018-07-07T05:19:33.496Z,92.10
2018-07-07T05:20:37.631Z,92.10
2018-07-07T05:22:45.407Z,92.10
2018-07-07T05:23:49.600Z,92.00
2018-07-07T05:24:53.763Z,92.00
2018-07-07T05:25:57.913Z,92.00
2018-07-07T05:27:01.939Z,92.10
2018-07-07T05:28:06.051Z,92.00
2018-07-07T05:29:10.183Z,92.10
2018-07-07T05:30:14.367Z,92.20
2018-07-07T05:31:18.520Z,92.50
2018-07-07T05:32:22.642Z,92.20
2018-07-07T05:33:26.749Z,92.20
2018-07-07T05:34:30.904Z,92.20
2018-07-07T05:35:35.022Z,92.10
2018-07-07T05:36:42.249Z,92.10
2018-07-07T05:37:46.371Z,92.10
2018-07-07T05:38:50.429Z,92.10
2018-07-07T05:39:54.613Z,92.10
2018-07-07T05:40:58.741Z,92.10
2018-07-07T05:42:03.156Z,92.20
2018-07-07T05:43:07.316Z,92.40
2018-07-07T05:44:11.436Z,92.10
2018-07-07T05:45:15.574Z,92.10
2018-07-07T05:46:19.761Z,92.10
2018-07-07T05:47:23.825Z,92.00
2018-07-07T05:48:27.875Z,92.10
2018-07-07T05:49:32.087Z,92.10
2018-07-07T05:50:36.225Z,92.10
2018-07-07T05:51:40.325Z,92.00
2018-07-07T05:52:44.401Z,92.00
2018-07-07T05:53:48.601Z,91.90
2018-07-07T05:54:52.798Z,92.00
2018-07-07T05:55:56.951Z,92.00
2018-07-07T05:57:01.100Z,92.00
2018-07-07T05:58:05.309Z,92.00
2018-07-07T05:59:09.458Z,91.90
2018-07-07T06:00:14.449Z,91.90
2018-07-07T06:01:18.739Z,91.90
2018-07-07T06:02:22.997Z,91.70
2018-07-07T06:03:27.191Z,91.60
2018-07-07T06:04:31.361Z,91.40
2018-07-07T06:05:35.711Z,91.30
2018-07-07T06:06:39.992Z,91.30
2018-07-07T06:07:44.142Z,91.20
2018-07-07T06:08:48.246Z,91.20
2018-07-07T06:09:52.351Z,91.20
2018-07-07T06:10:56.517Z,91.40
2018-07-07T06:12:00.659Z,91.10
2018-07-07T06:13:04.733Z,91.00
2018-07-07T06:14:08.861Z,91.10
2018-07-07T06:15:13.163Z,91.10
2018-07-07T06:16:17.357Z,91.10
2018-07-07T06:17:21.603Z,91.10
2018-07-07T06:18:25.727Z,91.10
2018-07-07T06:19:30.127Z,91.10
2018-07-07T06:20:34.225Z,91.10
2018-07-07T06:21:38.512Z,91.10
2018-07-07T06:22:42.693Z,91.00
2018-07-07T06:23:46.803Z,91.10
2018-07-07T06:24:50.952Z,91.00
2018-07-07T06:25:55.042Z,91.00
2018-07-07T06:26:59.140Z,91.00
2018-07-07T06:28:03.251Z,91.30
2018-07-07T06:29:07.596Z,91.00
2018-07-07T06:31:15.518Z,90.80
2018-07-07T06:32:19.622Z,90.70
2018-07-07T06:33:23.849Z,90.60
2018-07-07T06:34:27.952Z,90.70
2018-07-07T06:35:32.105Z,90.50
2018-07-07T06:36:36.192Z,90.60
2018-07-07T06:37:40.330Z,90.70
2018-07-07T06:38:44.737Z,90.60
2018-07-07T06:39:48.872Z,90.60
2018-07-07T06:40:53.007Z,90.50
2018-07-07T06:41:57.186Z,90.50
2018-07-07T06:43:01.343Z,90.40
2018-07-07T06:44:05.517Z,90.30
2018-07-07T06:45:09.822Z,90.30
2018-07-07T06:46:14.608Z,90.30
2018-07-07T06:47:18.701Z,90.30
2018-07-07T06:48:22.912Z,90.20
2018-07-07T06:49:27.980Z,90.20
2018-07-07T06:50:32.529Z,90.20
2018-07-07T06:51:37.820Z,90.30
2018-07-07T06:52:41.987Z,90.30
2018-07-07T06:53:46.194Z,90.40
2018-07-07T06:54:50.213Z,90.30
2018-07-07T06:55:54.317Z,90.20
2018-07-07T06:56:58.451Z,90.20
2018-07-07T06:58:02.561Z,90.20
2018-07-07T06:59:06.685Z,90.20
2018-07-07T07:00:10.874Z,90.30
2018-07-07T07:01:15.004Z,90.50
2018-07-07T07:02:19.737Z,90.40
2018-07-07T07:03:23.988Z,90.50
2018-07-07T07:04:28.143Z,90.50
2018-07-07T07:05:33.000Z,90.40
2018-07-07T07:06:37.179Z,90.30
2018-07-07T07:07:41.318Z,90.20
2018-07-07T07:08:45.447Z,90.20
2018-07-07T07:09:49.563Z,90.20
2018-07-07T07:10:53.866Z,90.30
2018-07-07T07:13:01.669Z,90.20
2018-07-07T07:14:05.999Z,90.00
2018-07-07T07:15:10.073Z,90.10
2018-07-07T07:16:14.328Z,90.10
2018-07-07T07:17:18.477Z,90.00
2018-07-07T07:18:22.584Z,90.00
2018-07-07T07:19:26.781Z,90.00
2018-07-07T07:21:34.631Z,89.70
2018-07-07T07:22:39.412Z,89.80
2018-07-07T07:23:43.538Z,89.70
2018-07-07T07:24:47.761Z,89.40
2018-07-07T07:25:51.907Z,89.70
2018-07-07T07:27:59.752Z,89.60
2018-07-07T07:29:04.042Z,89.70
2018-07-07T07:30:09.139Z,89.30
2018-07-07T07:32:16.892Z,88.70
2018-07-07T07:33:20.991Z,88.90
2018-07-07T07:34:25.296Z,88.50
2018-07-07T07:35:29.386Z,88.30
2018-07-07T07:36:42.908Z,88.20
2018-07-07T07:37:47.082Z,88.60
2018-07-07T07:38:51.165Z,88.70
2018-07-07T07:39:55.329Z,88.30
2018-07-07T07:40:59.437Z,87.80
2018-07-07T07:42:03.528Z,88.40
2018-07-07T07:43:07.786Z,87.00
2018-07-07T07:44:11.818Z,87.00
2018-07-07T07:45:15.985Z,87.00
2018-07-07T07:46:20.113Z,87.00
2018-07-07T07:48:28.342Z,87.20
2018-07-07T07:49:32.425Z,86.80
2018-07-07T07:50:36.618Z,87.60
2018-07-07T07:51:40.823Z,86.60
2018-07-07T07:52:44.907Z,86.40
2018-07-07T07:53:48.986Z,85.60
2018-07-07T07:54:53.097Z,85.70
2018-07-07T07:55:57.179Z,85.60
2018-07-07T07:57:01.414Z,85.30
2018-07-07T07:58:05.605Z,85.20
2018-07-07T07:59:09.654Z,85.10
2018-07-07T08:00:13.773Z,85.10
2018-07-07T08:01:17.848Z,84.80
2018-07-07T08:02:21.958Z,84.80
2018-07-07T08:03:26.011Z,85.30
2018-07-07T08:04:30.117Z,85.40
2018-07-07T08:05:34.231Z,85.30
2018-07-07T08:06:38.382Z,85.40
2018-07-07T08:07:42.485Z,86.00
2018-07-07T08:08:46.571Z,85.10
2018-07-07T08:09:50.776Z,84.50
2018-07-07T08:11:58.552Z,83.90
2018-07-07T08:14:06.516Z,84.00
2018-07-07T08:15:10.591Z,83.50
2018-07-07T08:16:14.712Z,83.90
2018-07-07T08:17:18.858Z,83.70
2018-07-07T08:18:23.082Z,84.00
2018-07-07T08:19:27.814Z,83.30
2018-07-07T08:20:31.983Z,83.30
2018-07-07T08:21:36.271Z,83.10
2018-07-07T08:22:40.474Z,83.40
2018-07-07T08:23:44.619Z,82.80
2018-07-07T08:24:48.800Z,82.80
2018-07-07T08:25:52.937Z,82.50
2018-07-07T08:26:57.004Z,82.40
2018-07-07T08:28:01.166Z,81.80
2018-07-07T08:29:05.281Z,81.30
2018-07-07T08:30:09.515Z,80.60
2018-07-07T08:31:13.603Z,80.10
2018-07-07T08:32:17.725Z,79.70
2018-07-07T08:33:22.168Z,79.60
2018-07-07T08:34:26.374Z,80.00
2018-07-07T08:35:30.464Z,80.20
2018-07-07T08:36:34.619Z,80.20
2018-07-07T08:37:38.664Z,80.00
2018-07-07T08:38:42.801Z,79.80
2018-07-07T08:39:46.941Z,80.70
2018-07-07T08:40:51.100Z,79.60
2018-07-07T08:41:55.253Z,79.20
2018-07-07T08:42:59.377Z,79.40
2018-07-07T08:44:03.468Z,79.80
2018-07-07T08:45:07.572Z,79.00
2018-07-07T08:46:11.681Z,79.20
2018-07-07T08:48:19.477Z,79.90
2018-07-07T08:49:23.981Z,79.90
2018-07-07T08:50:28.108Z,79.60
2018-07-07T08:51:32.171Z,79.00
2018-07-07T08:52:36.359Z,78.40
2018-07-07T08:53:40.460Z,78.40
2018-07-07T08:54:44.555Z,78.30
2018-07-07T08:55:48.731Z,78.60
2018-07-07T08:56:52.866Z,78.50
2018-07-07T08:57:56.962Z,78.70
2018-07-07T08:59:01.133Z,78.70
2018-07-07T09:00:05.344Z,78.00
2018-07-07T09:01:09.499Z,77.30
2018-07-07T09:02:13.738Z,77.20
2018-07-07T09:03:17.837Z,77.60
2018-07-07T09:04:21.945Z,76.80
2018-07-07T09:05:26.036Z,76.50
2018-07-07T09:06:30.207Z,75.10
2018-07-07T09:07:34.406Z,75.40
2018-07-07T09:08:38.484Z,76.30
2018-07-07T09:09:42.621Z,76.60
2018-07-07T09:10:46.737Z,76.60
2018-07-07T09:12:54.633Z,75.80
2018-07-07T09:13:58.822Z,75.40
2018-07-07T09:15:03.023Z,75.00
2018-07-07T09:16:07.166Z,74.60
2018-07-07T09:17:11.314Z,74.00
2018-07-07T09:18:15.399Z,73.90
2018-07-07T09:19:19.613Z,72.90
2018-07-07T09:20:23.746Z,73.00
2018-07-07T09:21:27.885Z,73.60
2018-07-07T09:22:32.013Z,73.70
2018-07-07T09:23:36.150Z,74.20
2018-07-07T09:24:40.271Z,74.00
2018-07-07T09:25:44.469Z,74.70
2018-07-07T09:26:48.601Z,74.00
2018-07-07T09:27:55.690Z,72.70
2018-07-07T09:28:59.798Z,72.00
2018-07-07T09:30:03.948Z,72.30
2018-07-07T09:31:08.658Z,71.70
2018-07-07T09:32:12.815Z,71.60
2018-07-07T09:33:16.981Z,72.10
2018-07-07T09:34:21.081Z,72.40
2018-07-07T09:35:25.216Z,71.70
2018-07-07T09:36:29.365Z,72.20
2018-07-07T09:37:33.430Z,72.20
2018-07-07T09:38:37.545Z,72.00
2018-07-07T09:39:41.669Z,72.40
2018-07-07T09:40:45.809Z,71.10
2018-07-07T09:41:49.917Z,72.80
2018-07-07T09:42:54.824Z,71.90
2018-07-07T09:43:58.978Z,72.60
2018-07-07T09:45:03.167Z,73.30
2018-07-07T09:46:07.255Z,71.80
2018-07-07T09:47:11.411Z,72.30
2018-07-07T09:48:15.590Z,72.50
2018-07-07T09:49:19.698Z,72.90
2018-07-07T09:50:23.909Z,73.20
2018-07-07T09:51:27.994Z,72.80
2018-07-07T09:52:32.118Z,72.30
2018-07-07T09:53:36.251Z,71.70
2018-07-07T09:54:40.392Z,71.70
2018-07-07T09:55:44.481Z,70.90
2018-07-07T09:56:48.645Z,70.00
2018-07-07T09:57:52.749Z,69.90
2018-07-07T09:58:56.931Z,69.60
2018-07-07T10:00:01.016Z,68.50
2018-07-07T10:01:05.092Z,68.50
2018-07-07T10:02:09.385Z,68.70
2018-07-07T10:03:13.593Z,68.60
2018-07-07T10:04:17.685Z,68.70
2018-07-07T10:05:21.843Z,69.00
2018-07-07T10:06:25.979Z,69.20
2018-07-07T10:07:30.069Z,69.70
2018-07-07T10:08:34.233Z,69.50
2018-07-07T10:09:38.353Z,69.30
2018-07-07T10:10:42.473Z,69.10
2018-07-07T10:11:46.616Z,68.40
2018-07-07T10:13:54.521Z,68.70
2018-07-07T10:14:58.688Z,68.20
2018-07-07T10:16:02.810Z,67.60
2018-07-07T10:17:07.100Z,67.20
2018-07-07T10:18:11.213Z,67.90
2018-07-07T10:19:15.322Z,68.90
2018-07-07T10:20:19.457Z,68.00
2018-07-07T10:21:23.629Z,68.50
2018-07-07T10:22:27.769Z,67.70
2018-07-07T10:23:31.860Z,67.00
2018-07-07T10:24:36.066Z,67.60
2018-07-07T10:25:40.129Z,67.50
2018-07-07T10:26:44.195Z,67.30
2018-07-07T10:27:48.256Z,67.50
2018-07-07T10:28:52.367Z,67.80
2018-07-07T10:29:56.676Z,66.80
2018-07-07T10:31:00.898Z,67.30
2018-07-07T10:32:05.059Z,67.00
2018-07-07T10:33:09.280Z,67.10
2018-07-07T10:34:13.337Z,66.30
2018-07-07T10:35:17.471Z,65.90
2018-07-07T10:36:21.625Z,65.50
2018-07-07T10:37:25.855Z,65.80
2018-07-07T10:38:30.339Z,65.70
2018-07-07T10:39:34.482Z,65.60
2018-07-07T10:40:38.706Z,65.50
2018-07-07T10:41:42.889Z,66.00
2018-07-07T10:42:47.056Z,66.90
2018-07-07T10:43:52.033Z,67.90
2018-07-07T10:44:56.144Z,68.20
2018-07-07T10:46:00.358Z,67.20
2018-07-07T10:47:04.421Z,68.40
2018-07-07T10:48:08.616Z,67.90
2018-07-07T10:49:12.774Z,67.90
2018-07-07T10:50:16.903Z,67.30
2018-07-07T10:51:21.774Z,67.00
2018-07-07T10:52:25.884Z,65.30
2018-07-07T10:53:30.035Z,64.90
2018-07-07T10:54:34.143Z,64.70
2018-07-07T10:55:38.343Z,64.80
2018-07-07T10:56:42.376Z,65.10
2018-07-07T10:57:46.497Z,65.60
2018-07-07T10:58:50.704Z,65.70
2018-07-07T10:59:55.043Z,66.20
2018-07-07T11:00:59.191Z,65.90
2018-07-07T11:02:03.357Z,65.80
2018-07-07T11:03:07.527Z,65.40
2018-07-07T11:04:12.244Z,64.80
2018-07-07T11:05:16.307Z,64.20
2018-07-07T11:06:20.395Z,62.70
2018-07-07T11:07:24.524Z,61.80
2018-07-07T11:08:28.693Z,62.10
2018-07-07T11:09:32.865Z,61.00
2018-07-07T11:10:37.176Z,60.90
2018-07-07T11:11:41.234Z,60.40
2018-07-07T11:12:45.336Z,60.70
2018-07-07T11:13:49.501Z,59.90
2018-07-07T11:14:53.603Z,59.10
2018-07-07T11:15:57.715Z,58.10
2018-07-07T11:17:01.807Z,56.80
2018-07-07T11:18:05.908Z,56.00
2018-07-07T11:19:10.632Z,56.00
2018-07-07T11:20:14.772Z,55.60
2018-07-07T11:21:18.910Z,55.70
2018-07-07T11:22:23.007Z,56.00
2018-07-07T11:23:27.125Z,55.00
2018-07-07T11:24:31.267Z,54.90
2018-07-07T11:25:35.461Z,55.60
2018-07-07T11:26:39.545Z,56.20
2018-07-07T11:27:43.712Z,56.00
2018-07-07T11:28:47.806Z,55.50
2018-07-07T11:29:52.087Z,55.70
2018-07-07T11:30:56.159Z,56.20
2018-07-07T11:32:00.279Z,56.00
2018-07-07T11:33:04.441Z,55.50
2018-07-07T11:34:08.591Z,56.90
2018-07-07T11:35:12.750Z,56.40
2018-07-07T11:36:16.940Z,56.40
2018-07-07T11:37:20.987Z,56.30
2018-07-07T11:38:25.147Z,56.60
2018-07-07T11:39:29.395Z,55.50
2018-07-07T11:40:34.020Z,55.50
2018-07-07T11:42:41.958Z,55.60
2018-07-07T11:43:46.207Z,54.90
2018-07-07T11:44:50.255Z,54.70
2018-07-07T11:45:54.463Z,54.80
2018-07-07T11:46:58.613Z,54.70
2018-07-07T11:48:02.777Z,54.80
2018-07-07T11:49:06.953Z,55.10
2018-07-07T11:50:11.094Z,55.30
2018-07-07T11:51:15.205Z,54.60
2018-07-07T11:52:19.309Z,55.10
2018-07-07T11:53:23.446Z,54.50
2018-07-07T11:54:27.495Z,54.80
2018-07-07T11:55:31.683Z,53.70
2018-07-07T11:56:35.715Z,53.20
2018-07-07T11:58:43.522Z,51.70
2018-07-07T11:59:47.819Z,50.80
2018-07-07T12:00:51.955Z,50.30
2018-07-07T12:01:56.089Z,49.60
2018-07-07T12:03:00.198Z,49.30
2018-07-07T12:04:04.327Z,49.10
2018-07-07T12:05:08.464Z,49.20
2018-07-07T12:06:12.599Z,49.00
2018-07-07T12:07:16.733Z,49.50
2018-07-07T12:08:20.858Z,49.30
2018-07-07T12:09:24.985Z,49.20
2018-07-07T12:10:29.184Z,49.30
2018-07-07T12:11:33.288Z,48.70
2018-07-07T12:12:37.415Z,49.60
2018-07-07T12:13:41.539Z,49.60
2018-07-07T12:14:45.774Z,50.30
2018-07-07T12:16:53.657Z,50.70
2018-07-07T12:17:57.717Z,50.60
2018-07-07T12:19:01.831Z,50.00
2018-07-07T12:20:06.269Z,49.20
2018-07-07T12:21:10.419Z,48.80
2018-07-07T12:22:14.530Z,48.40
2018-07-07T12:23:18.673Z,48.20
2018-07-07T12:24:22.833Z,48.10
2018-07-07T12:25:27.078Z,48.70
2018-07-07T12:26:31.234Z,49.10
2018-07-07T12:27:35.376Z,49.20
2018-07-07T12:28:39.432Z,49.70
2018-07-07T12:29:43.672Z,49.10
2018-07-07T12:30:47.811Z,48.90
2018-07-07T12:31:51.981Z,48.70
2018-07-07T12:32:57.461Z,48.20
2018-07-07T12:34:01.614Z,48.00
2018-07-07T12:35:05.785Z,46.80
2018-07-07T12:37:13.777Z,47.30
2018-07-07T12:38:17.964Z,46.80
2018-07-07T12:39:22.031Z,46.00
2018-07-07T12:40:26.147Z,46.00
2018-07-07T12:41:30.239Z,46.00
2018-07-07T12:42:34.428Z,46.20
2018-07-07T12:43:38.662Z,46.50
2018-07-07T12:44:42.691Z,46.70
2018-07-07T12:45:46.786Z,46.50
2018-07-07T12:46:50.938Z,46.80
2018-07-07T12:47:55.091Z,46.90
2018-07-07T12:48:59.327Z,46.80
2018-07-07T12:50:03.492Z,47.10
2018-07-07T12:51:07.996Z,47.40
2018-07-07T12:52:12.185Z,47.10
2018-07-07T12:53:16.419Z,47.10
2018-07-07T12:54:20.579Z,46.80
2018-07-07T12:55:24.736Z,46.40
2018-07-07T12:56:28.935Z,45.30
2018-07-07T12:57:33.117Z,44.90
2018-07-07T12:58:37.271Z,44.40
2018-07-07T12:59:41.367Z,44.30
2018-07-07T13:00:45.460Z,44.40
2018-07-07T13:01:49.648Z,44.00
2018-07-07T13:02:53.750Z,43.40
2018-07-07T13:03:57.815Z,43.30
2018-07-07T13:05:02.007Z,43.50
2018-07-07T13:06:06.455Z,44.00
2018-07-07T13:07:10.595Z,43.60
2018-07-07T13:08:14.757Z,43.30
2018-07-07T13:09:18.929Z,44.00
2018-07-07T13:10:23.172Z,43.20
2018-07-07T13:11:27.283Z,43.10
2018-07-07T13:12:31.650Z,43.40
2018-07-07T13:13:35.795Z,42.90
2018-07-07T13:14:39.948Z,43.00
2018-07-07T13:15:44.296Z,42.90
2018-07-07T13:16:48.378Z,43.80
2018-07-07T13:17:52.522Z,44.30
2018-07-07T13:18:56.716Z,44.70
2018-07-07T13:20:00.883Z,44.90
2018-07-07T13:21:05.056Z,45.00
2018-07-07T13:22:09.184Z,45.30
2018-07-07T13:23:13.323Z,45.20
2018-07-07T13:24:17.549Z,45.80
2018-07-07T13:25:21.668Z,46.40
2018-07-07T13:26:25.857Z,46.10
2018-07-07T13:27:29.893Z,46.70
2018-07-07T13:28:34.040Z,46.30
2018-07-07T13:30:41.958Z,46.60
2018-07-07T13:31:46.056Z,46.70
2018-07-07T13:32:50.145Z,45.50
2018-07-07T13:33:54.284Z,45.30
2018-07-07T13:34:58.359Z,45.50
2018-07-07T13:36:02.505Z,45.20
2018-07-07T13:37:06.963Z,45.20
2018-07-07T13:38:11.135Z,45.40
2018-07-07T13:39:15.236Z,45.20
2018-07-07T13:40:19.352Z,44.50
2018-07-07T13:41:23.530Z,44.30
2018-07-07T13:42:27.724Z,43.70
2018-07-07T13:43:31.821Z,43.40
2018-07-07T13:44:35.965Z,42.50
2018-07-07T13:45:40.354Z,42.20
2018-07-07T13:46:44.505Z,41.70
2018-07-07T13:47:48.659Z,41.30
2018-07-07T13:48:52.777Z,42.20
2018-07-07T13:49:56.956Z,41.50
2018-07-07T13:51:01.108Z,42.10
2018-07-07T13:52:05.362Z,42.30
2018-07-07T13:53:09.439Z,42.60
2018-07-07T13:54:13.881Z,43.10
2018-07-07T13:55:18.016Z,43.00
2018-07-07T13:56:22.079Z,43.20
2018-07-07T13:57:26.171Z,43.20
2018-07-07T13:58:30.338Z,43.50
2018-07-07T13:59:34.493Z,43.70
2018-07-07T14:00:38.680Z,43.30
2018-07-07T14:01:42.840Z,43.10
2018-07-07T14:02:46.956Z,42.30
2018-07-07T14:03:51.080Z,42.10
2018-07-07T14:04:55.219Z,42.10
2018-07-07T14:05:59.302Z,41.90
2018-07-07T14:07:03.505Z,41.60
2018-07-07T14:08:07.639Z,41.30
2018-07-07T14:09:11.776Z,41.40
2018-07-07T14:10:15.959Z,41.60
2018-07-07T14:11:20.080Z,42.50
2018-07-07T14:12:24.422Z,42.50
2018-07-07T14:13:28.551Z,42.90
2018-07-07T14:14:32.796Z,43.30
2018-07-07T14:15:36.941Z,43.60
2018-07-07T14:16:41.208Z,43.50